sensor_id;sensor_type;location;lat;lon;timestamp;P1;durP1;ratioP1;P2;durP2;ratioP2
22525;SDS011;11429;50.842;4.386;2024-02-23T00:02:04;1.67;;;0.80;;
22525;SDS011;11429;50.842;4.386;2024-02-23T00:04:30;4.97;;;1.60;;
22525;SDS011;11429;50.842;4.386;2024-02-23T00:06:57;4.07;;;1.38;;
22525;SDS011;11429;50.842;4.386;2024-02-23T00:09:23;7.05;;;1.58;;
22525;SDS011;11429;50.842;4.386;2024-02-23T00:11:49;5.45;;;1.17;;
22525;SDS011;11429;50.842;4.386;2024-02-23T00:14:15;6.05;;;1.30;;
22525;SDS011;11429;50.842;4.386;2024-02-23T00:16:45;5.97;;;1.00;;
22525;SDS011;11429;50.842;4.386;2024-02-23T00:19:11;4.65;;;1.23;;
22525;SDS011;11429;50.842;4.386;2024-02-23T00:21:37;6.63;;;1.10;;
22525;SDS011;11429;50.842;4.386;2024-02-23T00:24:03;7.03;;;1.30;;
22525;SDS011;11429;50.842;4.386;2024-02-23T00:26:30;5.35;;;0.90;;
22525;SDS011;11429;50.842;4.386;2024-02-23T00:28:56;4.07;;;1.10;;
22525;SDS011;11429;50.842;4.386;2024-02-23T00:31:22;4.80;;;1.15;;
22525;SDS011;11429;50.842;4.386;2024-02-23T00:33:47;3.72;;;1.10;;
22525;SDS011;11429;50.842;4.386;2024-02-23T00:36:13;3.45;;;0.98;;
22525;SDS011;11429;50.842;4.386;2024-02-23T00:38:39;6.57;;;2.00;;
22525;SDS011;11429;50.842;4.386;2024-02-23T00:41:05;3.65;;;1.08;;
22525;SDS011;11429;50.842;4.386;2024-02-23T00:43:40;5.50;;;1.10;;
22525;SDS011;11429;50.842;4.386;2024-02-23T00:46:07;2.78;;;1.00;;
22525;SDS011;11429;50.842;4.386;2024-02-23T00:48:33;2.72;;;1.10;;
22525;SDS011;11429;50.842;4.386;2024-02-23T00:51:00;7.35;;;1.42;;
22525;SDS011;11429;50.842;4.386;2024-02-23T00:53:27;5.38;;;1.27;;
22525;SDS011;11429;50.842;4.386;2024-02-23T00:55:53;6.00;;;1.00;;
22525;SDS011;11429;50.842;4.386;2024-02-23T00:58:19;4.47;;;1.33;;
22525;SDS011;11429;50.842;4.386;2024-02-23T01:00:45;4.55;;;1.23;;
22525;SDS011;11429;50.842;4.386;2024-02-23T01:03:10;3.28;;;1.15;;
22525;SDS011;11429;50.842;4.386;2024-02-23T01:05:36;4.47;;;1.20;;
22525;SDS011;11429;50.842;4.386;2024-02-23T01:08:03;6.03;;;1.70;;
22525;SDS011;11429;50.842;4.386;2024-02-23T01:10:29;7.50;;;1.13;;
22525;SDS011;11429;50.842;4.386;2024-02-23T01:12:55;6.30;;;1.15;;
22525;SDS011;11429;50.842;4.386;2024-02-23T01:15:20;6.40;;;1.13;;
22525;SDS011;11429;50.842;4.386;2024-02-23T01:17:46;4.60;;;1.13;;
22525;SDS011;11429;50.842;4.386;2024-02-23T01:20:12;4.00;;;1.00;;
22525;SDS011;11429;50.842;4.386;2024-02-23T01:22:38;5.40;;;1.20;;
22525;SDS011;11429;50.842;4.386;2024-02-23T01:25:05;5.30;;;0.90;;
22525;SDS011;11429;50.842;4.386;2024-02-23T01:27:31;2.33;;;1.23;;
22525;SDS011;11429;50.842;4.386;2024-02-23T01:29:57;2.95;;;0.93;;
22525;SDS011;11429;50.842;4.386;2024-02-23T01:32:22;4.53;;;1.10;;
22525;SDS011;11429;50.842;4.386;2024-02-23T01:34:48;2.00;;;0.70;;
22525;SDS011;11429;50.842;4.386;2024-02-23T01:37:14;2.63;;;0.93;;
22525;SDS011;11429;50.842;4.386;2024-02-23T01:39:39;4.22;;;1.20;;
22525;SDS011;11429;50.842;4.386;2024-02-23T01:42:05;6.13;;;1.55;;
22525;SDS011;11429;50.842;4.386;2024-02-23T01:44:31;4.55;;;1.20;;
22525;SDS011;11429;50.842;4.386;2024-02-23T01:46:57;3.13;;;1.00;;
22525;SDS011;11429;50.842;4.386;2024-02-23T01:49:23;4.85;;;1.00;;
22525;SDS011;11429;50.842;4.386;2024-02-23T01:51:55;5.90;;;1.27;;
22525;SDS011;11429;50.842;4.386;2024-02-23T01:54:22;3.35;;;0.93;;
22525;SDS011;11429;50.842;4.386;2024-02-23T01:56:49;6.03;;;1.17;;
22525;SDS011;11429;50.842;4.386;2024-02-23T01:59:15;3.83;;;1.25;;
22525;SDS011;11429;50.842;4.386;2024-02-23T02:01:42;5.18;;;1.42;;
22525;SDS011;11429;50.842;4.386;2024-02-23T02:04:09;5.88;;;1.30;;
22525;SDS011;11429;50.842;4.386;2024-02-23T02:06:35;3.83;;;1.23;;
22525;SDS011;11429;50.842;4.386;2024-02-23T02:09:01;4.47;;;1.55;;
22525;SDS011;11429;50.842;4.386;2024-02-23T02:11:27;5.20;;;1.17;;
22525;SDS011;11429;50.842;4.386;2024-02-23T02:13:53;7.32;;;1.85;;
22525;SDS011;11429;50.842;4.386;2024-02-23T02:16:19;7.00;;;1.48;;
22525;SDS011;11429;50.842;4.386;2024-02-23T02:18:44;4.13;;;1.50;;
22525;SDS011;11429;50.842;4.386;2024-02-23T02:21:11;3.85;;;1.23;;
22525;SDS011;11429;50.842;4.386;2024-02-23T02:23:37;6.53;;;1.50;;
22525;SDS011;11429;50.842;4.386;2024-02-23T02:26:03;5.43;;;1.95;;
22525;SDS011;11429;50.842;4.386;2024-02-23T02:28:29;5.85;;;1.65;;
22525;SDS011;11429;50.842;4.386;2024-02-23T02:30:55;5.35;;;1.50;;
22525;SDS011;11429;50.842;4.386;2024-02-23T02:33:21;5.32;;;1.55;;
22525;SDS011;11429;50.842;4.386;2024-02-23T02:35:48;7.85;;;1.92;;
22525;SDS011;11429;50.842;4.386;2024-02-23T02:38:14;9.35;;;1.75;;
22525;SDS011;11429;50.842;4.386;2024-02-23T02:40:41;7.18;;;1.60;;
22525;SDS011;11429;50.842;4.386;2024-02-23T02:43:07;6.00;;;1.70;;
22525;SDS011;11429;50.842;4.386;2024-02-23T02:45:33;4.55;;;1.40;;
22525;SDS011;11429;50.842;4.386;2024-02-23T02:48:02;8.13;;;1.98;;
22525;SDS011;11429;50.842;4.386;2024-02-23T02:50:28;5.85;;;1.95;;
22525;SDS011;11429;50.842;4.386;2024-02-23T02:52:54;8.00;;;2.05;;
22525;SDS011;11429;50.842;4.386;2024-02-23T02:55:19;5.00;;;1.80;;
22525;SDS011;11429;50.842;4.386;2024-02-23T02:57:45;9.35;;;2.80;;
22525;SDS011;11429;50.842;4.386;2024-02-23T03:00:11;8.23;;;2.25;;
22525;SDS011;11429;50.842;4.386;2024-02-23T03:02:37;6.00;;;2.42;;
22525;SDS011;11429;50.842;4.386;2024-02-23T03:05:03;9.77;;;1.98;;
22525;SDS011;11429;50.842;4.386;2024-02-23T03:07:29;6.65;;;2.20;;
22525;SDS011;11429;50.842;4.386;2024-02-23T03:09:55;4.88;;;1.92;;
22525;SDS011;11429;50.842;4.386;2024-02-23T03:12:21;9.68;;;2.38;;
22525;SDS011;11429;50.842;4.386;2024-02-23T03:14:50;4.90;;;2.03;;
22525;SDS011;11429;50.842;4.386;2024-02-23T03:17:15;7.72;;;2.22;;
22525;SDS011;11429;50.842;4.386;2024-02-23T03:19:41;7.03;;;2.20;;
22525;SDS011;11429;50.842;4.386;2024-02-23T03:22:07;10.77;;;2.30;;
22525;SDS011;11429;50.842;4.386;2024-02-23T03:24:33;6.28;;;2.40;;
22525;SDS011;11429;50.842;4.386;2024-02-23T03:26:59;9.02;;;2.53;;
22525;SDS011;11429;50.842;4.386;2024-02-23T03:29:24;5.93;;;2.25;;
22525;SDS011;11429;50.842;4.386;2024-02-23T03:31:54;8.10;;;2.88;;
22525;SDS011;11429;50.842;4.386;2024-02-23T03:34:20;7.47;;;2.42;;
22525;SDS011;11429;50.842;4.386;2024-02-23T03:36:46;10.32;;;3.05;;
22525;SDS011;11429;50.842;4.386;2024-02-23T03:39:12;7.15;;;2.40;;
22525;SDS011;11429;50.842;4.386;2024-02-23T03:41:38;7.15;;;2.50;;
22525;SDS011;11429;50.842;4.386;2024-02-23T03:44:04;5.55;;;2.13;;
22525;SDS011;11429;50.842;4.386;2024-02-23T03:46:30;8.02;;;3.38;;
22525;SDS011;11429;50.842;4.386;2024-02-23T03:48:56;12.10;;;2.53;;
22525;SDS011;11429;50.842;4.386;2024-02-23T03:51:22;7.05;;;2.35;;
22525;SDS011;11429;50.842;4.386;2024-02-23T03:53:49;11.40;;;2.53;;
22525;SDS011;11429;50.842;4.386;2024-02-23T03:56:15;4.65;;;2.13;;
22525;SDS011;11429;50.842;4.386;2024-02-23T03:58:41;7.32;;;2.40;;
22525;SDS011;11429;50.842;4.386;2024-02-23T04:01:07;6.38;;;2.40;;
22525;SDS011;11429;50.842;4.386;2024-02-23T04:03:33;7.80;;;2.10;;
22525;SDS011;11429;50.842;4.386;2024-02-23T04:05:59;6.10;;;2.20;;
22525;SDS011;11429;50.842;4.386;2024-02-23T04:08:25;6.40;;;2.22;;
22525;SDS011;11429;50.842;4.386;2024-02-23T04:10:51;8.57;;;2.38;;
22525;SDS011;11429;50.842;4.386;2024-02-23T04:13:16;10.68;;;2.55;;
22525;SDS011;11429;50.842;4.386;2024-02-23T04:15:43;6.53;;;2.22;;
22525;SDS011;11429;50.842;4.386;2024-02-23T04:18:09;12.70;;;2.97;;
22525;SDS011;11429;50.842;4.386;2024-02-23T04:20:34;9.13;;;2.67;;
22525;SDS011;11429;50.842;4.386;2024-02-23T04:23:00;12.80;;;2.60;;
22525;SDS011;11429;50.842;4.386;2024-02-23T04:25:26;7.97;;;2.60;;
22525;SDS011;11429;50.842;4.386;2024-02-23T04:27:52;8.27;;;2.28;;
22525;SDS011;11429;50.842;4.386;2024-02-23T04:30:17;9.48;;;3.20;;
22525;SDS011;11429;50.842;4.386;2024-02-23T04:32:43;6.10;;;1.92;;
22525;SDS011;11429;50.842;4.386;2024-02-23T04:35:09;5.22;;;1.98;;
22525;SDS011;11429;50.842;4.386;2024-02-23T04:37:35;8.68;;;2.35;;
22525;SDS011;11429;50.842;4.386;2024-02-23T04:40:01;8.52;;;2.50;;
22525;SDS011;11429;50.842;4.386;2024-02-23T04:42:27;4.40;;;1.83;;
22525;SDS011;11429;50.842;4.386;2024-02-23T04:44:53;9.82;;;3.10;;
22525;SDS011;11429;50.842;4.386;2024-02-23T04:47:20;6.90;;;2.58;;
22525;SDS011;11429;50.842;4.386;2024-02-23T04:49:46;8.60;;;2.50;;
22525;SDS011;11429;50.842;4.386;2024-02-23T04:52:11;7.85;;;2.65;;
22525;SDS011;11429;50.842;4.386;2024-02-23T04:54:37;9.90;;;2.65;;
22525;SDS011;11429;50.842;4.386;2024-02-23T04:57:03;4.28;;;2.13;;
22525;SDS011;11429;50.842;4.386;2024-02-23T04:59:29;6.70;;;2.00;;
22525;SDS011;11429;50.842;4.386;2024-02-23T05:01:57;6.82;;;1.90;;
22525;SDS011;11429;50.842;4.386;2024-02-23T05:04:23;7.35;;;1.63;;
22525;SDS011;11429;50.842;4.386;2024-02-23T05:06:48;9.18;;;2.35;;
22525;SDS011;11429;50.842;4.386;2024-02-23T05:09:14;5.55;;;1.77;;
22525;SDS011;11429;50.842;4.386;2024-02-23T05:11:40;4.10;;;1.98;;
22525;SDS011;11429;50.842;4.386;2024-02-23T05:14:06;5.50;;;1.70;;
22525;SDS011;11429;50.842;4.386;2024-02-23T05:16:31;9.05;;;2.00;;
22525;SDS011;11429;50.842;4.386;2024-02-23T05:18:57;6.75;;;1.60;;
22525;SDS011;11429;50.842;4.386;2024-02-23T05:21:23;3.42;;;1.27;;
22525;SDS011;11429;50.842;4.386;2024-02-23T05:23:50;11.13;;;1.88;;
22525;SDS011;11429;50.842;4.386;2024-02-23T05:26:17;5.55;;;1.50;;
22525;SDS011;11429;50.842;4.386;2024-02-23T05:28:43;8.57;;;1.95;;
22525;SDS011;11429;50.842;4.386;2024-02-23T05:31:09;4.32;;;1.38;;
22525;SDS011;11429;50.842;4.386;2024-02-23T05:33:35;7.05;;;1.58;;
22525;SDS011;11429;50.842;4.386;2024-02-23T05:36:00;5.90;;;1.70;;
22525;SDS011;11429;50.842;4.386;2024-02-23T05:38:26;8.43;;;1.48;;
22525;SDS011;11429;50.842;4.386;2024-02-23T05:40:52;7.50;;;1.40;;
22525;SDS011;11429;50.842;4.386;2024-02-23T05:43:18;5.65;;;1.67;;
22525;SDS011;11429;50.842;4.386;2024-02-23T05:45:43;7.55;;;2.05;;
22525;SDS011;11429;50.842;4.386;2024-02-23T05:48:10;5.75;;;1.33;;
22525;SDS011;11429;50.842;4.386;2024-02-23T05:50:36;5.63;;;1.52;;
22525;SDS011;11429;50.842;4.386;2024-02-23T05:53:02;7.47;;;1.55;;
22525;SDS011;11429;50.842;4.386;2024-02-23T05:55:29;4.82;;;1.58;;
22525;SDS011;11429;50.842;4.386;2024-02-23T05:57:55;7.90;;;1.45;;
22525;SDS011;11429;50.842;4.386;2024-02-23T06:00:21;7.38;;;1.75;;
22525;SDS011;11429;50.842;4.386;2024-02-23T06:02:47;6.93;;;1.70;;
22525;SDS011;11429;50.842;4.386;2024-02-23T06:05:13;7.57;;;1.80;;
22525;SDS011;11429;50.842;4.386;2024-02-23T06:07:39;8.10;;;1.90;;
22525;SDS011;11429;50.842;4.386;2024-02-23T06:10:06;7.00;;;1.73;;
22525;SDS011;11429;50.842;4.386;2024-02-23T06:12:32;7.22;;;1.95;;
22525;SDS011;11429;50.842;4.386;2024-02-23T06:14:58;6.47;;;1.80;;
22525;SDS011;11429;50.842;4.386;2024-02-23T06:17:24;5.75;;;1.70;;
22525;SDS011;11429;50.842;4.386;2024-02-23T06:19:50;8.52;;;1.67;;
22525;SDS011;11429;50.842;4.386;2024-02-23T06:22:18;10.52;;;2.08;;
22525;SDS011;11429;50.842;4.386;2024-02-23T06:24:46;7.43;;;2.30;;
22525;SDS011;11429;50.842;4.386;2024-02-23T06:27:12;9.10;;;2.10;;
22525;SDS011;11429;50.842;4.386;2024-02-23T06:29:38;7.60;;;1.80;;
22525;SDS011;11429;50.842;4.386;2024-02-23T06:32:04;4.60;;;1.10;;
22525;SDS011;11429;50.842;4.386;2024-02-23T06:34:30;5.38;;;1.52;;
22525;SDS011;11429;50.842;4.386;2024-02-23T06:36:56;6.72;;;1.80;;
22525;SDS011;11429;50.842;4.386;2024-02-23T06:39:23;7.20;;;1.52;;
22525;SDS011;11429;50.842;4.386;2024-02-23T06:41:49;6.68;;;1.33;;
22525;SDS011;11429;50.842;4.386;2024-02-23T06:44:14;5.60;;;1.27;;
22525;SDS011;11429;50.842;4.386;2024-02-23T06:46:40;6.50;;;1.73;;
22525;SDS011;11429;50.842;4.386;2024-02-23T06:49:06;9.77;;;1.98;;
22525;SDS011;11429;50.842;4.386;2024-02-23T06:51:33;6.32;;;1.50;;
22525;SDS011;11429;50.842;4.386;2024-02-23T06:53:58;5.45;;;1.90;;
22525;SDS011;11429;50.842;4.386;2024-02-23T06:56:24;4.57;;;1.55;;
22525;SDS011;11429;50.842;4.386;2024-02-23T06:58:50;9.75;;;1.90;;
22525;SDS011;11429;50.842;4.386;2024-02-23T07:01:15;8.75;;;1.75;;
22525;SDS011;11429;50.842;4.386;2024-02-23T07:03:41;10.02;;;2.10;;
22525;SDS011;11429;50.842;4.386;2024-02-23T07:06:09;7.43;;;1.50;;
22525;SDS011;11429;50.842;4.386;2024-02-23T07:08:37;10.02;;;2.20;;
22525;SDS011;11429;50.842;4.386;2024-02-23T07:11:03;9.35;;;2.25;;
22525;SDS011;11429;50.842;4.386;2024-02-23T07:13:29;7.88;;;1.80;;
22525;SDS011;11429;50.842;4.386;2024-02-23T07:15:55;10.77;;;3.05;;
22525;SDS011;11429;50.842;4.386;2024-02-23T07:18:21;15.50;;;2.35;;
22525;SDS011;11429;50.842;4.386;2024-02-23T07:20:47;6.53;;;1.60;;
22525;SDS011;11429;50.842;4.386;2024-02-23T07:23:13;8.50;;;1.23;;
22525;SDS011;11429;50.842;4.386;2024-02-23T07:25:41;5.45;;;1.42;;
22525;SDS011;11429;50.842;4.386;2024-02-23T07:28:07;11.48;;;2.13;;
22525;SDS011;11429;50.842;4.386;2024-02-23T07:30:33;8.48;;;2.20;;
22525;SDS011;11429;50.842;4.386;2024-02-23T07:33:00;9.55;;;2.08;;
22525;SDS011;11429;50.842;4.386;2024-02-23T07:35:26;4.72;;;1.35;;
22525;SDS011;11429;50.842;4.386;2024-02-23T07:37:53;8.32;;;2.58;;
22525;SDS011;11429;50.842;4.386;2024-02-23T07:40:20;9.43;;;1.67;;
22525;SDS011;11429;50.842;4.386;2024-02-23T07:42:45;9.75;;;1.67;;
22525;SDS011;11429;50.842;4.386;2024-02-23T07:45:11;9.25;;;2.25;;
22525;SDS011;11429;50.842;4.386;2024-02-23T07:47:37;8.35;;;1.85;;
22525;SDS011;11429;50.842;4.386;2024-02-23T07:50:03;7.32;;;2.53;;
22525;SDS011;11429;50.842;4.386;2024-02-23T07:52:29;6.85;;;1.90;;
22525;SDS011;11429;50.842;4.386;2024-02-23T07:54:54;6.03;;;1.70;;
22525;SDS011;11429;50.842;4.386;2024-02-23T07:57:20;9.57;;;1.83;;
22525;SDS011;11429;50.842;4.386;2024-02-23T07:59:46;8.77;;;2.00;;
22525;SDS011;11429;50.842;4.386;2024-02-23T08:02:13;5.70;;;1.92;;
22525;SDS011;11429;50.842;4.386;2024-02-23T08:04:39;11.77;;;1.83;;
22525;SDS011;11429;50.842;4.386;2024-02-23T08:07:05;5.43;;;1.70;;
22525;SDS011;11429;50.842;4.386;2024-02-23T08:09:31;9.48;;;1.90;;
22525;SDS011;11429;50.842;4.386;2024-02-23T08:11:57;5.78;;;1.80;;
22525;SDS011;11429;50.842;4.386;2024-02-23T08:14:23;8.93;;;1.90;;
22525;SDS011;11429;50.842;4.386;2024-02-23T08:16:49;6.50;;;2.33;;
22525;SDS011;11429;50.842;4.386;2024-02-23T08:19:15;7.65;;;1.70;;
22525;SDS011;11429;50.842;4.386;2024-02-23T08:21:41;9.27;;;2.10;;
22525;SDS011;11429;50.842;4.386;2024-02-23T08:24:08;5.40;;;1.55;;
22525;SDS011;11429;50.842;4.386;2024-02-23T08:26:34;6.10;;;1.83;;
22525;SDS011;11429;50.842;4.386;2024-02-23T08:29:03;10.98;;;1.85;;
22525;SDS011;11429;50.842;4.386;2024-02-23T08:31:29;4.03;;;1.63;;
22525;SDS011;11429;50.842;4.386;2024-02-23T08:33:55;5.97;;;2.00;;
22525;SDS011;11429;50.842;4.386;2024-02-23T08:36:21;7.65;;;1.85;;
22525;SDS011;11429;50.842;4.386;2024-02-23T08:38:47;7.88;;;1.95;;
22525;SDS011;11429;50.842;4.386;2024-02-23T08:41:12;9.55;;;2.05;;
22525;SDS011;11429;50.842;4.386;2024-02-23T08:43:38;8.30;;;2.33;;
22525;SDS011;11429;50.842;4.386;2024-02-23T08:46:04;11.93;;;2.42;;
22525;SDS011;11429;50.842;4.386;2024-02-23T08:48:30;9.23;;;2.45;;
22525;SDS011;11429;50.842;4.386;2024-02-23T08:50:55;5.47;;;1.77;;
22525;SDS011;11429;50.842;4.386;2024-02-23T08:53:21;5.45;;;1.70;;
22525;SDS011;11429;50.842;4.386;2024-02-23T08:55:47;7.07;;;1.77;;
22525;SDS011;11429;50.842;4.386;2024-02-23T08:58:13;5.88;;;1.65;;
22525;SDS011;11429;50.842;4.386;2024-02-23T09:00:38;7.35;;;1.58;;
22525;SDS011;11429;50.842;4.386;2024-02-23T09:03:04;7.38;;;2.00;;
22525;SDS011;11429;50.842;4.386;2024-02-23T09:05:30;8.50;;;1.85;;
22525;SDS011;11429;50.842;4.386;2024-02-23T09:07:56;6.15;;;1.98;;
22525;SDS011;11429;50.842;4.386;2024-02-23T09:10:22;4.85;;;1.92;;
22525;SDS011;11429;50.842;4.386;2024-02-23T09:12:47;8.23;;;1.83;;
22525;SDS011;11429;50.842;4.386;2024-02-23T09:15:13;7.63;;;2.17;;
22525;SDS011;11429;50.842;4.386;2024-02-23T09:17:42;6.75;;;1.90;;
22525;SDS011;11429;50.842;4.386;2024-02-23T09:20:08;9.43;;;2.13;;
22525;SDS011;11429;50.842;4.386;2024-02-23T09:22:34;7.78;;;1.90;;
22525;SDS011;11429;50.842;4.386;2024-02-23T09:25:01;9.13;;;1.90;;
22525;SDS011;11429;50.842;4.386;2024-02-23T09:27:27;5.95;;;1.85;;
22525;SDS011;11429;50.842;4.386;2024-02-23T09:29:53;7.20;;;1.90;;
22525;SDS011;11429;50.842;4.386;2024-02-23T09:32:19;6.25;;;1.90;;
22525;SDS011;11429;50.842;4.386;2024-02-23T09:34:45;4.85;;;1.70;;
22525;SDS011;11429;50.842;4.386;2024-02-23T09:37:11;3.80;;;1.63;;
22525;SDS011;11429;50.842;4.386;2024-02-23T09:39:36;4.55;;;1.52;;
22525;SDS011;11429;50.842;4.386;2024-02-23T09:42:03;8.40;;;1.92;;
22525;SDS011;11429;50.842;4.386;2024-02-23T09:44:35;8.15;;;2.05;;
22525;SDS011;11429;50.842;4.386;2024-02-23T09:47:02;6.32;;;2.13;;
22525;SDS011;11429;50.842;4.386;2024-02-23T09:49:38;5.60;;;2.03;;
22525;SDS011;11429;50.842;4.386;2024-02-23T09:52:08;7.63;;;2.25;;
22525;SDS011;11429;50.842;4.386;2024-02-23T09:54:38;10.77;;;2.72;;
22525;SDS011;11429;50.842;4.386;2024-02-23T09:57:06;9.70;;;2.33;;
22525;SDS011;11429;50.842;4.386;2024-02-23T09:59:33;8.25;;;1.95;;
22525;SDS011;11429;50.842;4.386;2024-02-23T10:02:00;8.05;;;2.22;;
22525;SDS011;11429;50.842;4.386;2024-02-23T10:04:28;6.15;;;1.98;;
22525;SDS011;11429;50.842;4.386;2024-02-23T10:06:55;8.10;;;2.35;;
22525;SDS011;11429;50.842;4.386;2024-02-23T10:09:21;7.45;;;2.90;;
22525;SDS011;11429;50.842;4.386;2024-02-23T10:11:53;4.03;;;2.22;;
22525;SDS011;11429;50.842;4.386;2024-02-23T10:14:20;6.55;;;2.90;;
22525;SDS011;11429;50.842;4.386;2024-02-23T10:16:46;5.95;;;2.72;;
22525;SDS011;11429;50.842;4.386;2024-02-23T10:19:12;6.15;;;2.45;;
22525;SDS011;11429;50.842;4.386;2024-02-23T10:21:38;9.13;;;2.90;;
22525;SDS011;11429;50.842;4.386;2024-02-23T10:24:04;4.90;;;2.28;;
22525;SDS011;11429;50.842;4.386;2024-02-23T10:26:31;5.70;;;2.03;;
22525;SDS011;11429;50.842;4.386;2024-02-23T10:28:57;5.43;;;2.13;;
22525;SDS011;11429;50.842;4.386;2024-02-23T10:31:24;9.48;;;2.50;;
22525;SDS011;11429;50.842;4.386;2024-02-23T10:33:50;12.35;;;2.70;;
22525;SDS011;11429;50.842;4.386;2024-02-23T10:36:17;6.90;;;1.83;;
22525;SDS011;11429;50.842;4.386;2024-02-23T10:38:44;6.97;;;1.85;;
22525;SDS011;11429;50.842;4.386;2024-02-23T10:41:14;8.02;;;2.28;;
22525;SDS011;11429;50.842;4.386;2024-02-23T10:43:44;6.18;;;2.00;;
22525;SDS011;11429;50.842;4.386;2024-02-23T10:46:14;7.13;;;2.10;;
22525;SDS011;11429;50.842;4.386;2024-02-23T10:48:43;6.47;;;2.20;;
22525;SDS011;11429;50.842;4.386;2024-02-23T10:51:10;7.38;;;1.85;;
22525;SDS011;11429;50.842;4.386;2024-02-23T10:53:41;10.57;;;2.92;;
22525;SDS011;11429;50.842;4.386;2024-02-23T10:56:11;6.45;;;2.60;;
22525;SDS011;11429;50.842;4.386;2024-02-23T10:58:37;6.78;;;2.40;;
22525;SDS011;11429;50.842;4.386;2024-02-23T11:01:03;6.95;;;2.50;;
22525;SDS011;11429;50.842;4.386;2024-02-23T11:03:34;6.97;;;1.75;;
22525;SDS011;11429;50.842;4.386;2024-02-23T11:06:02;6.40;;;2.58;;
22525;SDS011;11429;50.842;4.386;2024-02-23T11:08:35;7.13;;;2.08;;
22525;SDS011;11429;50.842;4.386;2024-02-23T11:11:07;5.80;;;1.88;;
22525;SDS011;11429;50.842;4.386;2024-02-23T11:13:34;5.60;;;2.17;;
22525;SDS011;11429;50.842;4.386;2024-02-23T11:16:04;6.80;;;2.40;;
22525;SDS011;11429;50.842;4.386;2024-02-23T11:18:31;10.77;;;2.42;;
22525;SDS011;11429;50.842;4.386;2024-02-23T11:20:59;10.35;;;2.80;;
22525;SDS011;11429;50.842;4.386;2024-02-23T11:23:38;5.53;;;2.63;;
22525;SDS011;11429;50.842;4.386;2024-02-23T11:26:12;7.20;;;2.25;;
22525;SDS011;11429;50.842;4.386;2024-02-23T11:28:42;7.10;;;2.28;;
22525;SDS011;11429;50.842;4.386;2024-02-23T11:31:15;10.88;;;3.25;;
22525;SDS011;11429;50.842;4.386;2024-02-23T11:33:50;10.15;;;3.50;;
22525;SDS011;11429;50.842;4.386;2024-02-23T11:38:51;6.70;;;2.13;;
22525;SDS011;11429;50.842;4.386;2024-02-23T11:41:19;5.47;;;2.47;;
22525;SDS011;11429;50.842;4.386;2024-02-23T11:43:45;5.22;;;2.47;;
22525;SDS011;11429;50.842;4.386;2024-02-23T11:46:12;6.95;;;2.65;;
22525;SDS011;11429;50.842;4.386;2024-02-23T11:48:39;5.97;;;2.55;;
22525;SDS011;11429;50.842;4.386;2024-02-23T11:51:05;10.73;;;2.58;;
22525;SDS011;11429;50.842;4.386;2024-02-23T11:53:32;7.97;;;2.17;;
22525;SDS011;11429;50.842;4.386;2024-02-23T11:55:58;3.83;;;1.48;;
22525;SDS011;11429;50.842;4.386;2024-02-23T11:58:24;7.15;;;2.65;;
22525;SDS011;11429;50.842;4.386;2024-02-23T12:00:50;8.48;;;2.78;;
22525;SDS011;11429;50.842;4.386;2024-02-23T12:03:16;8.57;;;3.30;;
22525;SDS011;11429;50.842;4.386;2024-02-23T12:05:42;8.40;;;3.40;;
22525;SDS011;11429;50.842;4.386;2024-02-23T12:08:08;7.82;;;3.08;;
22525;SDS011;11429;50.842;4.386;2024-02-23T12:10:34;9.02;;;2.63;;
22525;SDS011;11429;50.842;4.386;2024-02-23T12:13:01;8.82;;;2.95;;
22525;SDS011;11429;50.842;4.386;2024-02-23T12:15:28;8.77;;;2.67;;
22525;SDS011;11429;50.842;4.386;2024-02-23T12:17:54;8.50;;;2.80;;
22525;SDS011;11429;50.842;4.386;2024-02-23T12:20:25;6.68;;;3.13;;
22525;SDS011;11429;50.842;4.386;2024-02-23T12:22:50;9.95;;;4.15;;
22525;SDS011;11429;50.842;4.386;2024-02-23T12:25:21;6.03;;;2.90;;
22525;SDS011;11429;50.842;4.386;2024-02-23T12:27:53;7.32;;;3.25;;
22525;SDS011;11429;50.842;4.386;2024-02-23T12:30:19;8.23;;;2.80;;
22525;SDS011;11429;50.842;4.386;2024-02-23T12:32:45;6.93;;;3.33;;
22525;SDS011;11429;50.842;4.386;2024-02-23T12:35:11;9.43;;;3.17;;
22525;SDS011;11429;50.842;4.386;2024-02-23T12:37:37;5.20;;;3.05;;
22525;SDS011;11429;50.842;4.386;2024-02-23T12:40:04;6.25;;;2.55;;
22525;SDS011;11429;50.842;4.386;2024-02-23T12:42:30;7.18;;;2.70;;
22525;SDS011;11429;50.842;4.386;2024-02-23T12:44:56;5.95;;;2.40;;
22525;SDS011;11429;50.842;4.386;2024-02-23T12:47:22;5.78;;;2.30;;
22525;SDS011;11429;50.842;4.386;2024-02-23T12:49:48;4.95;;;2.47;;
22525;SDS011;11429;50.842;4.386;2024-02-23T12:52:14;5.15;;;2.42;;
22525;SDS011;11429;50.842;4.386;2024-02-23T12:54:39;6.75;;;2.50;;
22525;SDS011;11429;50.842;4.386;2024-02-23T12:57:07;8.52;;;3.08;;
22525;SDS011;11429;50.842;4.386;2024-02-23T12:59:32;6.28;;;2.05;;
22525;SDS011;11429;50.842;4.386;2024-02-23T13:01:59;8.18;;;2.13;;
22525;SDS011;11429;50.842;4.386;2024-02-23T13:04:24;5.30;;;2.25;;
22525;SDS011;11429;50.842;4.386;2024-02-23T13:06:50;9.48;;;2.30;;
22525;SDS011;11429;50.842;4.386;2024-02-23T13:09:16;5.95;;;1.90;;
22525;SDS011;11429;50.842;4.386;2024-02-23T13:11:42;4.65;;;1.67;;
22525;SDS011;11429;50.842;4.386;2024-02-23T13:14:08;4.75;;;1.73;;
22525;SDS011;11429;50.842;4.386;2024-02-23T13:16:34;5.72;;;2.17;;
22525;SDS011;11429;50.842;4.386;2024-02-23T13:19:00;10.10;;;2.63;;
22525;SDS011;11429;50.842;4.386;2024-02-23T13:21:26;7.03;;;1.75;;
22525;SDS011;11429;50.842;4.386;2024-02-23T13:23:57;4.47;;;2.08;;
22525;SDS011;11429;50.842;4.386;2024-02-23T13:26:23;6.85;;;1.92;;
22525;SDS011;11429;50.842;4.386;2024-02-23T13:28:49;12.60;;;6.60;;
22525;SDS011;11429;50.842;4.386;2024-02-23T13:31:14;6.68;;;2.10;;
22525;SDS011;11429;50.842;4.386;2024-02-23T13:33:42;8.10;;;2.83;;
22525;SDS011;11429;50.842;4.386;2024-02-23T13:36:10;10.88;;;3.08;;
22525;SDS011;11429;50.842;4.386;2024-02-23T13:38:36;6.45;;;1.85;;
22525;SDS011;11429;50.842;4.386;2024-02-23T13:41:04;5.03;;;1.50;;
22525;SDS011;11429;50.842;4.386;2024-02-23T13:43:31;6.90;;;1.50;;
22525;SDS011;11429;50.842;4.386;2024-02-23T13:45:58;5.38;;;1.67;;
22525;SDS011;11429;50.842;4.386;2024-02-23T13:48:24;5.88;;;1.88;;
22525;SDS011;11429;50.842;4.386;2024-02-23T13:50:49;4.18;;;1.80;;
22525;SDS011;11429;50.842;4.386;2024-02-23T13:53:15;4.47;;;2.20;;
22525;SDS011;11429;50.842;4.386;2024-02-23T13:55:41;4.97;;;2.15;;
22525;SDS011;11429;50.842;4.386;2024-02-23T13:58:09;4.22;;;1.40;;
22525;SDS011;11429;50.842;4.386;2024-02-23T14:00:35;5.13;;;1.30;;
22525;SDS011;11429;50.842;4.386;2024-02-23T14:03:01;6.32;;;1.67;;
22525;SDS011;11429;50.842;4.386;2024-02-23T14:05:28;8.38;;;2.35;;
22525;SDS011;11429;50.842;4.386;2024-02-23T14:07:53;2.92;;;1.33;;
22525;SDS011;11429;50.842;4.386;2024-02-23T14:10:19;6.75;;;1.83;;
22525;SDS011;11429;50.842;4.386;2024-02-23T14:12:45;3.78;;;1.48;;
22525;SDS011;11429;50.842;4.386;2024-02-23T14:15:11;5.40;;;1.60;;
22525;SDS011;11429;50.842;4.386;2024-02-23T14:17:38;5.63;;;1.33;;
22525;SDS011;11429;50.842;4.386;2024-02-23T14:20:04;4.93;;;1.58;;
22525;SDS011;11429;50.842;4.386;2024-02-23T14:22:31;5.65;;;1.50;;
22525;SDS011;11429;50.842;4.386;2024-02-23T14:24:57;5.22;;;1.52;;
22525;SDS011;11429;50.842;4.386;2024-02-23T14:27:23;4.72;;;1.70;;
22525;SDS011;11429;50.842;4.386;2024-02-23T14:29:49;5.97;;;1.90;;
22525;SDS011;11429;50.842;4.386;2024-02-23T14:32:18;4.95;;;1.63;;
22525;SDS011;11429;50.842;4.386;2024-02-23T14:34:44;3.38;;;1.60;;
22525;SDS011;11429;50.842;4.386;2024-02-23T14:37:10;5.07;;;1.38;;
22525;SDS011;11429;50.842;4.386;2024-02-23T14:39:36;4.18;;;1.48;;
22525;SDS011;11429;50.842;4.386;2024-02-23T14:42:02;4.00;;;1.33;;
22525;SDS011;11429;50.842;4.386;2024-02-23T14:44:33;5.68;;;2.67;;